sensor_id;sensor_type;location;lat;lon;timestamp;P1;durP1;ratioP1;P2;durP2;ratioP2
51312;SDS011;37397;53.226;10.400;2023-07-24T00:00:06;4.70;;;2.90;;
51312;SDS011;37397;53.226;10.400;2023-07-24T00:02:33;5.32;;;3.00;;
51312;SDS011;37397;53.226;10.400;2023-07-24T00:04:59;4.30;;;2.72;;
51312;SDS011;37397;53.226;10.400;2023-07-24T00:07:26;4.75;;;2.90;;
51312;SDS011;37397;53.226;10.400;2023-07-24T00:09:52;4.25;;;2.88;;
51312;SDS011;37397;53.226;10.400;2023-07-24T00:12:19;5.55;;;3.10;;
51312;SDS011;37397;53.226;10.400;2023-07-24T00:14:46;4.50;;;2.90;;
51312;SDS011;37397;53.226;10.400;2023-07-24T00:17:12;4.38;;;2.50;;
51312;SDS011;37397;53.226;10.400;2023-07-24T00:19:39;4.82;;;2.95;;
51312;SDS011;37397;53.226;10.400;2023-07-24T00:22:05;5.35;;;3.13;;
51312;SDS011;37397;53.226;10.400;2023-07-24T00:24:32;5.07;;;2.70;;
51312;SDS011;37397;53.226;10.400;2023-07-24T00:26:58;3.60;;;2.58;;
51312;SDS011;37397;53.226;10.400;2023-07-24T00:29:25;4.30;;;2.55;;
51312;SDS011;37397;53.226;10.400;2023-07-24T00:31:52;4.10;;;2.80;;
51312;SDS011;37397;53.226;10.400;2023-07-24T00:34:18;4.80;;;2.83;;
51312;SDS011;37397;53.226;10.400;2023-07-24T00:36:45;4.85;;;2.78;;
51312;SDS011;37397;53.226;10.400;2023-07-24T00:39:13;7.45;;;3.35;;
51312;SDS011;37397;53.226;10.400;2023-07-24T00:41:41;3.78;;;2.70;;
51312;SDS011;37397;53.226;10.400;2023-07-24T00:44:08;4.75;;;2.97;;
51312;SDS011;37397;53.226;10.400;2023-07-24T00:46:35;4.68;;;2.78;;
51312;SDS011;37397;53.226;10.400;2023-07-24T00:49:02;4.07;;;2.70;;
51312;SDS011;37397;53.226;10.400;2023-07-24T00:51:31;4.65;;;3.10;;
51312;SDS011;37397;53.226;10.400;2023-07-24T00:54:00;4.50;;;2.70;;
51312;SDS011;37397;53.226;10.400;2023-07-24T00:56:28;4.47;;;2.88;;
51312;SDS011;37397;53.226;10.400;2023-07-24T00:58:57;4.72;;;3.05;;
51312;SDS011;37397;53.226;10.400;2023-07-24T01:01:24;4.30;;;2.88;;
51312;SDS011;37397;53.226;10.400;2023-07-24T01:03:51;3.83;;;2.40;;
51312;SDS011;37397;53.226;10.400;2023-07-24T01:06:18;4.35;;;2.60;;
51312;SDS011;37397;53.226;10.400;2023-07-24T01:08:45;5.00;;;2.72;;
51312;SDS011;37397;53.226;10.400;2023-07-24T01:11:23;3.42;;;2.30;;
51312;SDS011;37397;53.226;10.400;2023-07-24T01:14:02;4.53;;;2.85;;
51312;SDS011;37397;53.226;10.400;2023-07-24T01:16:39;3.88;;;2.60;;
51312;SDS011;37397;53.226;10.400;2023-07-24T01:19:26;4.63;;;2.70;;
51312;SDS011;37397;53.226;10.400;2023-07-24T01:22:02;3.83;;;2.72;;
51312;SDS011;37397;53.226;10.400;2023-07-24T01:24:38;5.22;;;2.67;;
51312;SDS011;37397;53.226;10.400;2023-07-24T01:27:20;4.00;;;2.65;;
51312;SDS011;37397;53.226;10.400;2023-07-24T01:29:50;6.88;;;2.90;;
51312;SDS011;37397;53.226;10.400;2023-07-24T01:32:16;4.05;;;2.63;;
51312;SDS011;37397;53.226;10.400;2023-07-24T01:34:46;4.90;;;3.08;;
51312;SDS011;37397;53.226;10.400;2023-07-24T01:37:13;4.57;;;2.78;;
51312;SDS011;37397;53.226;10.400;2023-07-24T01:39:41;5.57;;;3.22;;
51312;SDS011;37397;53.226;10.400;2023-07-24T01:42:09;5.85;;;2.83;;
51312;SDS011;37397;53.226;10.400;2023-07-24T01:44:36;4.38;;;2.38;;
51312;SDS011;37397;53.226;10.400;2023-07-24T01:47:03;4.10;;;2.72;;
51312;SDS011;37397;53.226;10.400;2023-07-24T01:49:30;4.03;;;2.63;;
51312;SDS011;37397;53.226;10.400;2023-07-24T01:51:57;5.13;;;2.70;;
51312;SDS011;37397;53.226;10.400;2023-07-24T01:54:23;3.25;;;2.33;;
51312;SDS011;37397;53.226;10.400;2023-07-24T01:56:50;3.88;;;2.78;;
51312;SDS011;37397;53.226;10.400;2023-07-24T01:59:18;3.95;;;2.40;;
51312;SDS011;37397;53.226;10.400;2023-07-24T02:01:44;4.35;;;2.60;;
51312;SDS011;37397;53.226;10.400;2023-07-24T02:04:11;3.67;;;2.60;;
51312;SDS011;37397;53.226;10.400;2023-07-24T02:06:39;4.22;;;2.65;;
51312;SDS011;37397;53.226;10.400;2023-07-24T02:09:06;4.72;;;2.90;;
51312;SDS011;37397;53.226;10.400;2023-07-24T02:11:32;5.55;;;2.60;;
51312;SDS011;37397;53.226;10.400;2023-07-24T02:13:59;4.57;;;2.70;;
51312;SDS011;37397;53.226;10.400;2023-07-24T02:16:25;4.90;;;2.70;;
51312;SDS011;37397;53.226;10.400;2023-07-24T02:18:52;4.93;;;2.50;;
51312;SDS011;37397;53.226;10.400;2023-07-24T02:21:19;3.97;;;2.50;;
51312;SDS011;37397;53.226;10.400;2023-07-24T02:23:45;2.97;;;2.40;;
51312;SDS011;37397;53.226;10.400;2023-07-24T02:26:12;5.25;;;2.75;;
51312;SDS011;37397;53.226;10.400;2023-07-24T02:28:38;4.25;;;2.47;;
51312;SDS011;37397;53.226;10.400;2023-07-24T02:31:05;4.63;;;2.92;;
51312;SDS011;37397;53.226;10.400;2023-07-24T02:33:32;3.47;;;2.65;;
51312;SDS011;37397;53.226;10.400;2023-07-24T02:36:00;4.22;;;2.70;;
51312;SDS011;37397;53.226;10.400;2023-07-24T02:38:27;4.45;;;2.55;;
51312;SDS011;37397;53.226;10.400;2023-07-24T02:40:53;3.97;;;2.40;;
51312;SDS011;37397;53.226;10.400;2023-07-24T02:43:20;5.55;;;2.80;;
51312;SDS011;37397;53.226;10.400;2023-07-24T02:45:46;3.67;;;2.40;;
51312;SDS011;37397;53.226;10.400;2023-07-24T02:48:13;4.53;;;2.88;;
51312;SDS011;37397;53.226;10.400;2023-07-24T02:50:40;3.83;;;2.60;;
51312;SDS011;37397;53.226;10.400;2023-07-24T02:53:06;4.32;;;2.92;;
51312;SDS011;37397;53.226;10.400;2023-07-24T02:55:33;4.95;;;3.13;;
51312;SDS011;37397;53.226;10.400;2023-07-24T02:57:59;5.22;;;2.85;;
51312;SDS011;37397;53.226;10.400;2023-07-24T03:00:26;5.03;;;3.10;;
51312;SDS011;37397;53.226;10.400;2023-07-24T03:02:52;3.85;;;2.70;;
51312;SDS011;37397;53.226;10.400;2023-07-24T03:05:19;4.47;;;2.80;;
51312;SDS011;37397;53.226;10.400;2023-07-24T03:07:46;3.83;;;2.90;;
51312;SDS011;37397;53.226;10.400;2023-07-24T03:10:12;5.20;;;2.60;;
51312;SDS011;37397;53.226;10.400;2023-07-24T03:12:39;4.63;;;2.95;;
51312;SDS011;37397;53.226;10.400;2023-07-24T03:15:06;4.80;;;3.10;;
51312;SDS011;37397;53.226;10.400;2023-07-24T03:17:34;4.88;;;3.00;;
51312;SDS011;37397;53.226;10.400;2023-07-24T03:20:07;5.15;;;3.28;;
51312;SDS011;37397;53.226;10.400;2023-07-24T03:22:40;5.00;;;3.25;;
51312;SDS011;37397;53.226;10.400;2023-07-24T03:25:07;4.38;;;2.90;;
51312;SDS011;37397;53.226;10.400;2023-07-24T03:27:34;6.05;;;2.88;;
51312;SDS011;37397;53.226;10.400;2023-07-24T03:30:01;5.53;;;3.10;;
51312;SDS011;37397;53.226;10.400;2023-07-24T03:32:29;5.70;;;3.40;;
51312;SDS011;37397;53.226;10.400;2023-07-24T03:34:56;5.82;;;3.50;;
51312;SDS011;37397;53.226;10.400;2023-07-24T03:37:22;5.22;;;2.90;;
51312;SDS011;37397;53.226;10.400;2023-07-24T03:39:50;5.25;;;3.20;;
51312;SDS011;37397;53.226;10.400;2023-07-24T03:42:25;7.70;;;3.40;;
51312;SDS011;37397;53.226;10.400;2023-07-24T03:44:56;6.88;;;4.20;;
51312;SDS011;37397;53.226;10.400;2023-07-24T03:47:23;5.60;;;3.22;;
51312;SDS011;37397;53.226;10.400;2023-07-24T03:49:50;5.45;;;3.30;;
51312;SDS011;37397;53.226;10.400;2023-07-24T03:52:17;5.18;;;3.40;;
51312;SDS011;37397;53.226;10.400;2023-07-24T03:54:43;6.15;;;3.70;;
51312;SDS011;37397;53.226;10.400;2023-07-24T03:57:10;4.97;;;3.50;;
51312;SDS011;37397;53.226;10.400;2023-07-24T03:59:36;5.95;;;3.88;;
51312;SDS011;37397;53.226;10.400;2023-07-24T04:02:03;5.90;;;3.80;;
51312;SDS011;37397;53.226;10.400;2023-07-24T04:04:31;5.55;;;3.47;;
51312;SDS011;37397;53.226;10.400;2023-07-24T04:06:58;6.28;;;3.10;;
51312;SDS011;37397;53.226;10.400;2023-07-24T04:09:24;4.68;;;3.20;;
51312;SDS011;37397;53.226;10.400;2023-07-24T04:11:51;7.55;;;3.92;;
51312;SDS011;37397;53.226;10.400;2023-07-24T04:14:17;5.35;;;3.28;;
51312;SDS011;37397;53.226;10.400;2023-07-24T04:16:44;5.88;;;3.70;;
51312;SDS011;37397;53.226;10.400;2023-07-24T04:19:11;5.78;;;3.60;;
51312;SDS011;37397;53.226;10.400;2023-07-24T04:21:40;4.38;;;3.22;;
51312;SDS011;37397;53.226;10.400;2023-07-24T04:24:07;6.07;;;3.55;;
51312;SDS011;37397;53.226;10.400;2023-07-24T04:26:33;5.78;;;3.83;;
51312;SDS011;37397;53.226;10.400;2023-07-24T04:29:03;5.75;;;3.42;;
51312;SDS011;37397;53.226;10.400;2023-07-24T04:31:29;4.90;;;3.40;;
51312;SDS011;37397;53.226;10.400;2023-07-24T04:33:56;5.30;;;3.47;;
51312;SDS011;37397;53.226;10.400;2023-07-24T04:36:22;5.55;;;3.58;;
51312;SDS011;37397;53.226;10.400;2023-07-24T04:38:49;6.18;;;3.58;;
51312;SDS011;37397;53.226;10.400;2023-07-24T04:41:15;7.00;;;3.45;;
51312;SDS011;37397;53.226;10.400;2023-07-24T04:43:43;4.78;;;3.08;;
51312;SDS011;37397;53.226;10.400;2023-07-24T04:46:09;5.43;;;3.60;;
51312;SDS011;37397;53.226;10.400;2023-07-24T04:48:36;5.18;;;3.50;;
51312;SDS011;37397;53.226;10.400;2023-07-24T04:51:02;8.23;;;3.75;;
51312;SDS011;37397;53.226;10.400;2023-07-24T04:53:29;6.07;;;3.72;;
51312;SDS011;37397;53.226;10.400;2023-07-24T04:55:55;6.80;;;3.80;;
51312;SDS011;37397;53.226;10.400;2023-07-24T04:58:22;6.70;;;3.88;;
51312;SDS011;37397;53.226;10.400;2023-07-24T05:00:48;5.72;;;3.35;;
51312;SDS011;37397;53.226;10.400;2023-07-24T05:03:15;6.50;;;3.65;;
51312;SDS011;37397;53.226;10.400;2023-07-24T05:05:43;5.20;;;3.38;;
51312;SDS011;37397;53.226;10.400;2023-07-24T05:08:13;5.65;;;3.42;;
51312;SDS011;37397;53.226;10.400;2023-07-24T05:10:40;4.57;;;3.20;;
51312;SDS011;37397;53.226;10.400;2023-07-24T05:13:06;5.82;;;3.80;;
51312;SDS011;37397;53.226;10.400;2023-07-24T05:15:33;4.78;;;3.15;;
51312;SDS011;37397;53.226;10.400;2023-07-24T05:17:59;7.05;;;3.55;;
51312;SDS011;37397;53.226;10.400;2023-07-24T05:20:26;5.25;;;3.50;;
51312;SDS011;37397;53.226;10.400;2023-07-24T05:22:52;5.05;;;3.30;;
51312;SDS011;37397;53.226;10.400;2023-07-24T05:25:19;6.13;;;3.60;;
51312;SDS011;37397;53.226;10.400;2023-07-24T05:27:46;5.05;;;3.22;;
51312;SDS011;37397;53.226;10.400;2023-07-24T05:30:12;5.40;;;3.42;;
51312;SDS011;37397;53.226;10.400;2023-07-24T05:32:39;5.72;;;3.40;;
51312;SDS011;37397;53.226;10.400;2023-07-24T05:35:05;4.50;;;3.15;;
51312;SDS011;37397;53.226;10.400;2023-07-24T05:37:32;4.78;;;3.10;;
51312;SDS011;37397;53.226;10.400;2023-07-24T05:39:59;5.85;;;3.22;;
51312;SDS011;37397;53.226;10.400;2023-07-24T05:42:25;4.32;;;3.03;;
51312;SDS011;37397;53.226;10.400;2023-07-24T05:44:52;4.15;;;3.05;;
51312;SDS011;37397;53.226;10.400;2023-07-24T05:47:18;4.88;;;3.25;;
51312;SDS011;37397;53.226;10.400;2023-07-24T05:49:45;5.47;;;3.08;;
51312;SDS011;37397;53.226;10.400;2023-07-24T05:52:12;4.93;;;3.42;;
51312;SDS011;37397;53.226;10.400;2023-07-24T05:54:39;4.38;;;3.13;;
51312;SDS011;37397;53.226;10.400;2023-07-24T05:57:05;6.40;;;3.45;;
51312;SDS011;37397;53.226;10.400;2023-07-24T05:59:32;5.28;;;3.30;;
51312;SDS011;37397;53.226;10.400;2023-07-24T06:01:58;4.28;;;3.20;;
51312;SDS011;37397;53.226;10.400;2023-07-24T06:04:25;4.20;;;3.00;;
51312;SDS011;37397;53.226;10.400;2023-07-24T06:06:52;4.10;;;2.95;;
51312;SDS011;37397;53.226;10.400;2023-07-24T06:09:18;4.32;;;3.00;;
51312;SDS011;37397;53.226;10.400;2023-07-24T06:11:47;5.03;;;3.05;;
51312;SDS011;37397;53.226;10.400;2023-07-24T06:14:14;3.72;;;3.00;;
51312;SDS011;37397;53.226;10.400;2023-07-24T06:16:40;6.15;;;3.10;;
51312;SDS011;37397;53.226;10.400;2023-07-24T06:19:07;4.60;;;3.20;;
51312;SDS011;37397;53.226;10.400;2023-07-24T06:21:33;5.00;;;2.92;;
51312;SDS011;37397;53.226;10.400;2023-07-24T06:24:01;4.68;;;3.47;;
51312;SDS011;37397;53.226;10.400;2023-07-24T06:26:28;3.83;;;2.83;;
51312;SDS011;37397;53.226;10.400;2023-07-24T06:28:56;4.18;;;3.00;;
51312;SDS011;37397;53.226;10.400;2023-07-24T06:31:22;4.15;;;2.97;;
51312;SDS011;37397;53.226;10.400;2023-07-24T06:33:52;3.72;;;3.10;;
51312;SDS011;37397;53.226;10.400;2023-07-24T06:36:18;4.38;;;2.88;;
51312;SDS011;37397;53.226;10.400;2023-07-24T06:38:45;4.80;;;3.30;;
51312;SDS011;37397;53.226;10.400;2023-07-24T06:41:14;4.80;;;3.10;;
51312;SDS011;37397;53.226;10.400;2023-07-24T06:43:41;4.45;;;3.33;;
51312;SDS011;37397;53.226;10.400;2023-07-24T06:46:08;5.80;;;3.35;;
51312;SDS011;37397;53.226;10.400;2023-07-24T06:48:35;4.13;;;3.05;;
51312;SDS011;37397;53.226;10.400;2023-07-24T06:51:01;4.80;;;3.42;;
51312;SDS011;37397;53.226;10.400;2023-07-24T06:53:28;4.88;;;3.40;;
51312;SDS011;37397;53.226;10.400;2023-07-24T06:55:55;5.18;;;3.53;;
51312;SDS011;37397;53.226;10.400;2023-07-24T06:58:21;5.15;;;3.33;;
51312;SDS011;37397;53.226;10.400;2023-07-24T07:00:48;4.53;;;3.58;;
51312;SDS011;37397;53.226;10.400;2023-07-24T07:03:14;6.13;;;4.05;;
51312;SDS011;37397;53.226;10.400;2023-07-24T07:05:41;5.45;;;3.60;;
51312;SDS011;37397;53.226;10.400;2023-07-24T07:08:07;6.53;;;3.25;;
51312;SDS011;37397;53.226;10.400;2023-07-24T07:10:34;5.43;;;3.83;;
51312;SDS011;37397;53.226;10.400;2023-07-24T07:13:00;4.80;;;3.80;;
51312;SDS011;37397;53.226;10.400;2023-07-24T07:15:27;5.47;;;3.75;;
51312;SDS011;37397;53.226;10.400;2023-07-24T07:17:53;7.47;;;4.60;;
51312;SDS011;37397;53.226;10.400;2023-07-24T07:20:20;5.47;;;4.00;;
51312;SDS011;37397;53.226;10.400;2023-07-24T07:22:46;5.15;;;3.90;;
51312;SDS011;37397;53.226;10.400;2023-07-24T07:25:13;6.75;;;4.15;;
51312;SDS011;37397;53.226;10.400;2023-07-24T07:27:39;6.30;;;4.20;;
51312;SDS011;37397;53.226;10.400;2023-07-24T07:30:06;5.80;;;4.25;;
51312;SDS011;37397;53.226;10.400;2023-07-24T07:32:33;5.97;;;4.10;;
51312;SDS011;37397;53.226;10.400;2023-07-24T07:35:00;6.40;;;4.07;;
51312;SDS011;37397;53.226;10.400;2023-07-24T07:37:26;6.32;;;3.92;;
51312;SDS011;37397;53.226;10.400;2023-07-24T07:39:53;7.88;;;4.40;;
51312;SDS011;37397;53.226;10.400;2023-07-24T07:42:19;7.82;;;4.15;;
51312;SDS011;37397;53.226;10.400;2023-07-24T07:44:46;7.55;;;4.85;;
51312;SDS011;37397;53.226;10.400;2023-07-24T07:47:12;7.70;;;4.57;;
51312;SDS011;37397;53.226;10.400;2023-07-24T07:49:39;6.45;;;4.25;;
51312;SDS011;37397;53.226;10.400;2023-07-24T07:52:08;7.07;;;4.50;;
51312;SDS011;37397;53.226;10.400;2023-07-24T07:54:35;6.78;;;4.45;;
51312;SDS011;37397;53.226;10.400;2023-07-24T07:57:01;6.82;;;4.43;;
51312;SDS011;37397;53.226;10.400;2023-07-24T07:59:29;9.25;;;4.68;;
51312;SDS011;37397;53.226;10.400;2023-07-24T08:01:56;7.20;;;4.70;;
51312;SDS011;37397;53.226;10.400;2023-07-24T08:04:22;6.50;;;4.50;;
51312;SDS011;37397;53.226;10.400;2023-07-24T08:06:49;7.95;;;4.60;;
51312;SDS011;37397;53.226;10.400;2023-07-24T08:09:15;7.07;;;4.60;;
51312;SDS011;37397;53.226;10.400;2023-07-24T08:11:43;6.80;;;4.80;;
51312;SDS011;37397;53.226;10.400;2023-07-24T08:14:10;6.65;;;4.57;;
51312;SDS011;37397;53.226;10.400;2023-07-24T08:16:36;8.30;;;5.35;;
51312;SDS011;37397;53.226;10.400;2023-07-24T08:19:03;8.95;;;4.90;;
51312;SDS011;37397;53.226;10.400;2023-07-24T08:21:30;11.05;;;5.70;;
51312;SDS011;37397;53.226;10.400;2023-07-24T08:23:56;7.25;;;4.55;;
51312;SDS011;37397;53.226;10.400;2023-07-24T08:26:24;8.20;;;4.72;;
51312;SDS011;37397;53.226;10.400;2023-07-24T08:28:52;9.15;;;4.72;;
51312;SDS011;37397;53.226;10.400;2023-07-24T08:31:19;9.27;;;4.32;;
51312;SDS011;37397;53.226;10.400;2023-07-24T08:33:46;10.00;;;4.40;;
51312;SDS011;37397;53.226;10.400;2023-07-24T08:36:12;8.32;;;4.45;;
51312;SDS011;37397;53.226;10.400;2023-07-24T08:38:39;5.47;;;3.72;;
51312;SDS011;37397;53.226;10.400;2023-07-24T08:41:08;6.30;;;4.00;;
51312;SDS011;37397;53.226;10.400;2023-07-24T08:43:36;6.13;;;3.50;;
51312;SDS011;37397;53.226;10.400;2023-07-24T08:46:04;6.50;;;3.83;;
51312;SDS011;37397;53.226;10.400;2023-07-24T08:48:32;5.22;;;3.30;;
51312;SDS011;37397;53.226;10.400;2023-07-24T08:51:03;5.78;;;3.40;;
51312;SDS011;37397;53.226;10.400;2023-07-24T08:53:35;7.25;;;3.63;;
51312;SDS011;37397;53.226;10.400;2023-07-24T08:56:03;7.50;;;3.70;;
51312;SDS011;37397;53.226;10.400;2023-07-24T08:58:30;6.60;;;4.05;;
51312;SDS011;37397;53.226;10.400;2023-07-24T09:00:57;4.75;;;2.80;;
51312;SDS011;37397;53.226;10.400;2023-07-24T09:03:25;4.32;;;2.80;;
51312;SDS011;37397;53.226;10.400;2023-07-24T09:05:52;3.08;;;2.42;;
51312;SDS011;37397;53.226;10.400;2023-07-24T09:08:32;5.03;;;2.50;;
51312;SDS011;37397;53.226;10.400;2023-07-24T09:11:01;4.53;;;2.40;;
51312;SDS011;37397;53.226;10.400;2023-07-24T09:13:28;3.25;;;2.38;;
51312;SDS011;37397;53.226;10.400;2023-07-24T09:15:55;4.70;;;2.42;;
51312;SDS011;37397;53.226;10.400;2023-07-24T09:18:23;3.10;;;2.35;;
51312;SDS011;37397;53.226;10.400;2023-07-24T09:20:49;4.82;;;2.58;;
51312;SDS011;37397;53.226;10.400;2023-07-24T09:23:17;4.75;;;2.60;;
51312;SDS011;37397;53.226;10.400;2023-07-24T09:25:52;4.35;;;2.65;;
51312;SDS011;37397;53.226;10.400;2023-07-24T09:28:19;4.88;;;2.80;;
51312;SDS011;37397;53.226;10.400;2023-07-24T09:30:53;2.85;;;2.15;;
51312;SDS011;37397;53.226;10.400;2023-07-24T09:33:22;3.83;;;2.58;;
51312;SDS011;37397;53.226;10.400;2023-07-24T09:36:00;4.25;;;2.75;;
51312;SDS011;37397;53.226;10.400;2023-07-24T09:38:27;3.85;;;2.30;;
51312;SDS011;37397;53.226;10.400;2023-07-24T09:40:54;2.90;;;2.22;;
51312;SDS011;37397;53.226;10.400;2023-07-24T09:43:23;2.53;;;2.13;;
51312;SDS011;37397;53.226;10.400;2023-07-24T09:46:05;2.78;;;2.00;;
51312;SDS011;37397;53.226;10.400;2023-07-24T09:48:33;3.00;;;2.17;;
51312;SDS011;37397;53.226;10.400;2023-07-24T09:51:04;3.17;;;2.35;;
51312;SDS011;37397;53.226;10.400;2023-07-24T09:53:44;4.07;;;2.30;;
51312;SDS011;37397;53.226;10.400;2023-07-24T09:56:20;4.00;;;2.40;;
51312;SDS011;37397;53.226;10.400;2023-07-24T09:59:00;2.72;;;1.88;;
51312;SDS011;37397;53.226;10.400;2023-07-24T10:01:29;2.65;;;1.70;;
51312;SDS011;37397;53.226;10.400;2023-07-24T10:03:58;3.42;;;2.05;;
51312;SDS011;37397;53.226;10.400;2023-07-24T10:06:25;3.80;;;2.05;;
51312;SDS011;37397;53.226;10.400;2023-07-24T10:08:53;2.63;;;1.92;;
51312;SDS011;37397;53.226;10.400;2023-07-24T10:11:20;2.13;;;1.80;;
51312;SDS011;37397;53.226;10.400;2023-07-24T10:13:48;2.20;;;1.90;;
51312;SDS011;37397;53.226;10.400;2023-07-24T10:16:16;2.70;;;1.92;;
51312;SDS011;37397;53.226;10.400;2023-07-24T10:18:43;2.47;;;2.00;;
51312;SDS011;37397;53.226;10.400;2023-07-24T10:21:11;3.88;;;1.98;;
51312;SDS011;37397;53.226;10.400;2023-07-24T10:23:43;3.95;;;2.20;;
51312;SDS011;37397;53.226;10.400;2023-07-24T10:26:12;3.75;;;2.20;;
51312;SDS011;37397;53.226;10.400;2023-07-24T10:28:41;2.88;;;2.20;;
51312;SDS011;37397;53.226;10.400;2023-07-24T10:31:25;2.90;;;2.00;;
51312;SDS011;37397;53.226;10.400;2023-07-24T10:33:54;3.72;;;2.10;;
51312;SDS011;37397;53.226;10.400;2023-07-24T10:36:23;3.63;;;2.22;;
51312;SDS011;37397;53.226;10.400;2023-07-24T10:38:54;4.10;;;2.00;;
51312;SDS011;37397;53.226;10.400;2023-07-24T10:41:21;2.95;;;2.22;;
51312;SDS011;37397;53.226;10.400;2023-07-24T10:43:51;2.78;;;2.30;;
51312;SDS011;37397;53.226;10.400;2023-07-24T10:46:19;3.35;;;2.40;;
51312;SDS011;37397;53.226;10.400;2023-07-24T10:48:47;3.30;;;2.38;;
51312;SDS011;37397;53.226;10.400;2023-07-24T10:51:15;3.92;;;2.20;;
51312;SDS011;37397;53.226;10.400;2023-07-24T10:53:46;3.65;;;2.60;;
51312;SDS011;37397;53.226;10.400;2023-07-24T10:56:15;5.13;;;3.38;;
51312;SDS011;37397;53.226;10.400;2023-07-24T10:58:43;4.00;;;2.67;;
51312;SDS011;37397;53.226;10.400;2023-07-24T11:01:09;3.58;;;2.63;;
51312;SDS011;37397;53.226;10.400;2023-07-24T11:03:38;4.53;;;2.78;;
51312;SDS011;37397;53.226;10.400;2023-07-24T11:06:17;6.70;;;3.00;;
51312;SDS011;37397;53.226;10.400;2023-07-24T11:08:55;3.58;;;2.40;;
51312;SDS011;37397;53.226;10.400;2023-07-24T11:11:32;3.13;;;2.58;;
51312;SDS011;37397;53.226;10.400;2023-07-24T11:14:01;4.35;;;2.63;;
51312;SDS011;37397;53.226;10.400;2023-07-24T11:16:29;3.22;;;2.47;;
51312;SDS011;37397;53.226;10.400;2023-07-24T11:19:00;3.83;;;2.67;;
51312;SDS011;37397;53.226;10.400;2023-07-24T11:21:27;4.20;;;3.03;;
51312;SDS011;37397;53.226;10.400;2023-07-24T11:23:56;3.47;;;2.80;;
51312;SDS011;37397;53.226;10.400;2023-07-24T11:26:23;4.30;;;2.90;;
51312;SDS011;37397;53.226;10.400;2023-07-24T11:28:51;4.32;;;2.90;;
51312;SDS011;37397;53.226;10.400;2023-07-24T11:31:18;4.22;;;3.08;;
51312;SDS011;37397;53.226;10.400;2023-07-24T11:33:50;4.57;;;3.15;;
51312;SDS011;37397;53.226;10.400;2023-07-24T11:36:18;5.43;;;3.30;;
51312;SDS011;37397;53.226;10.400;2023-07-24T11:38:45;4.05;;;3.00;;
51312;SDS011;37397;53.226;10.400;2023-07-24T11:41:12;3.50;;;2.65;;
51312;SDS011;37397;53.226;10.400;2023-07-24T11:43:47;4.05;;;2.65;;
51312;SDS011;37397;53.226;10.400;2023-07-24T11:46:24;3.33;;;2.50;;
51312;SDS011;37397;53.226;10.400;2023-07-24T11:48:51;4.85;;;2.58;;
51312;SDS011;37397;53.226;10.400;2023-07-24T11:51:20;4.43;;;2.47;;
51312;SDS011;37397;53.226;10.400;2023-07-24T11:53:46;4.82;;;2.60;;
51312;SDS011;37397;53.226;10.400;2023-07-24T11:56:14;4.60;;;2.70;;
51312;SDS011;37397;53.226;10.400;2023-07-24T11:58:42;4.18;;;2.75;;
51312;SDS011;37397;53.226;10.400;2023-07-24T12:01:08;5.78;;;2.75;;
51312;SDS011;37397;53.226;10.400;2023-07-24T12:03:35;4.65;;;2.65;;
51312;SDS011;37397;53.226;10.400;2023-07-24T12:06:02;4.85;;;2.60;;
51312;SDS011;37397;53.226;10.400;2023-07-24T12:08:29;3.50;;;2.20;;
51312;SDS011;37397;53.226;10.400;2023-07-24T12:10:57;3.15;;;2.17;;
51312;SDS011;37397;53.226;10.400;2023-07-24T12:13:24;4.15;;;2.40;;
51312;SDS011;37397;53.226;10.400;2023-07-24T12:15:51;3.53;;;2.33;;
51312;SDS011;37397;53.226;10.400;2023-07-24T12:18:17;3.47;;;2.30;;
51312;SDS011;37397;53.226;10.400;2023-07-24T12:20:44;3.13;;;2.30;;
51312;SDS011;37397;53.226;10.400;2023-07-24T12:23:11;3.50;;;2.67;;
51312;SDS011;37397;53.226;10.400;2023-07-24T12:25:37;3.33;;;2.28;;
51312;SDS011;37397;53.226;10.400;2023-07-24T12:28:04;3.55;;;2.20;;
51312;SDS011;37397;53.226;10.400;2023-07-24T12:30:30;4.15;;;2.00;;
51312;SDS011;37397;53.226;10.400;2023-07-24T12:32:57;3.22;;;2.38;;
51312;SDS011;37397;53.226;10.400;2023-07-24T12:35:24;3.65;;;2.30;;
51312;SDS011;37397;53.226;10.400;2023-07-24T12:37:51;2.83;;;1.90;;
51312;SDS011;37397;53.226;10.400;2023-07-24T12:40:17;2.67;;;2.03;;
51312;SDS011;37397;53.226;10.400;2023-07-24T12:42:44;3.28;;;2.17;;
51312;SDS011;37397;53.226;10.400;2023-07-24T12:45:10;2.28;;;1.88;;
51312;SDS011;37397;53.226;10.400;2023-07-24T12:47:37;2.65;;;2.10;;
51312;SDS011;37397;53.226;10.400;2023-07-24T12:50:03;3.53;;;2.25;;
51312;SDS011;37397;53.226;10.400;2023-07-24T12:52:33;3.65;;;2.00;;
51312;SDS011;37397;53.226;10.400;2023-07-24T12:54:59;2.75;;;2.00;;
51312;SDS011;37397;53.226;10.400;2023-07-24T12:57:28;2.83;;;2.08;;
51312;SDS011;37397;53.226;10.400;2023-07-24T12:59:55;2.95;;;2.28;;
51312;SDS011;37397;53.226;10.400;2023-07-24T13:02:21;3.35;;;1.90;;
51312;SDS011;37397;53.226;10.400;2023-07-24T13:04:48;3.40;;;2.10;;
51312;SDS011;37397;53.226;10.400;2023-07-24T13:07:14;2.50;;;1.90;;
51312;SDS011;37397;53.226;10.400;2023-07-24T13:09:41;2.70;;;1.70;;
51312;SDS011;37397;53.226;10.400;2023-07-24T13:12:08;2.30;;;1.80;;
51312;SDS011;37397;53.226;10.400;2023-07-24T13:14:35;2.85;;;2.00;;
51312;SDS011;37397;53.226;10.400;2023-07-24T13:17:05;2.60;;;1.80;;
51312;SDS011;37397;53.226;10.400;2023-07-24T13:19:32;2.03;;;1.75;;
51312;SDS011;37397;53.226;10.400;2023-07-24T13:21:58;2.35;;;2.00;;
51312;SDS011;37397;53.226;10.400;2023-07-24T13:24:25;3.20;;;2.17;;
51312;SDS011;37397;53.226;10.400;2023-07-24T13:26:52;3.05;;;1.95;;
51312;SDS011;37397;53.226;10.400;2023-07-24T13:29:18;2.55;;;1.92;;
51312;SDS011;37397;53.226;10.400;2023-07-24T13:31:46;3.97;;;1.88;;
51312;SDS011;37397;53.226;10.400;2023-07-24T13:34:12;3.13;;;2.13;;
51312;SDS011;37397;53.226;10.400;2023-07-24T13:36:39;2.97;;;2.20;;
51312;SDS011;37397;53.226;10.400;2023-07-24T13:39:06;3.40;;;2.10;;
51312;SDS011;37397;53.226;10.400;2023-07-24T13:41:32;2.28;;;1.90;;
51312;SDS011;37397;53.226;10.400;2023-07-24T13:44:01;3.15;;;2.08;;
51312;SDS011;37397;53.226;10.400;2023-07-24T13:46:28;3.25;;;2.20;;
51312;SDS011;37397;53.226;10.400;2023-07-24T13:48:54;3.65;;;2.30;;
51312;SDS011;37397;53.226;10.400;2023-07-24T13:51:21;5.10;;;2.10;;
51312;SDS011;37397;53.226;10.400;2023-07-24T13:53:48;2.92;;;2.15;;
51312;SDS011;37397;53.226;10.400;2023-07-24T13:56:18;2.28;;;1.95;;
51312;SDS011;37397;53.226;10.400;2023-07-24T13:58:44;3.15;;;2.58;;
51312;SDS011;37397;53.226;10.400;2023-07-24T14:01:11;4.20;;;2.70;;
51312;SDS011;37397;53.226;10.400;2023-07-24T14:03:38;2.95;;;2.25;;
51312;SDS011;37397;53.226;10.400;2023-07-24T14:06:05;5.18;;;2.78;;
51312;SDS011;37397;53.226;10.400;2023-07-24T14:08:31;3.38;;;2.53;;
51312;SDS011;37397;53.226;10.400;2023-07-24T14:10:58;3.70;;;2.60;;
51312;SDS011;37397;53.226;10.400;2023-07-24T14:13:24;3.10;;;2.42;;
51312;SDS011;37397;53.226;10.400;2023-07-24T14:15:51;4.00;;;2.90;;
51312;SDS011;37397;53.226;10.400;2023-07-24T14:18:19;4.25;;;2.97;;
51312;SDS011;37397;53.226;10.400;2023-07-24T14:20:46;4.40;;;2.80;;
51312;SDS011;37397;53.226;10.400;2023-07-24T14:23:13;4.72;;;2.80;;
51312;SDS011;37397;53.226;10.400;2023-07-24T14:25:40;4.80;;;3.45;;
51312;SDS011;37397;53.226;10.400;2023-07-24T14:28:06;6.65;;;3.22;;
51312;SDS011;37397;53.226;10.400;2023-07-24T14:30:33;4.88;;;3.03;;
51312;SDS011;37397;53.226;10.400;2023-07-24T14:32:59;4.47;;;2.90;;
51312;SDS011;37397;53.226;10.400;2023-07-24T14:35:26;5.53;;;3.13;;